Time;durP1;ratioP1;P1;durP2;ratioP2;P2;SDS_P1;SDS_P2;PMS_P1;PMS_P2;Temp;Humidity;BMP_temperature;BMP_pressure;BME280_temperature;BME280_humidity;BME280_pressure;Samples;Min_cycle;Max_cycle;Signal;HPM_P1;HPM_P2
2023/04/21 00:00:01;;;;;;;17.17;13.23;;;;;;;5.62;83.47;93020.97;513783;28;934;-52
2023/04/21 00:00:16;;;;;;;16.85;12.98;;;;;;;5.64;83.36;93021.94;513863;28;1123;-55
2023/04/21 00:00:32;;;;;;;15.30;12.57;;;;;;;5.68;83.24;93021.59;513842;28;817;-54
2023/04/21 00:00:47;;;;;;;14.55;12.13;;;;;;;5.69;83.07;93015.63;513814;28;876;-55
2023/04/21 00:01:07;;;;;;;13.90;11.90;;;;;;;5.72;83.05;93022.75;513838;28;873;-54
2023/04/21 00:01:22;;;;;;;14.00;11.35;;;;;;;5.75;82.85;93029.19;513920;28;864;-55
2023/04/21 00:01:38;;;;;;;14.33;11.30;;;;;;;5.77;82.79;93021.19;513892;28;964;-52
2023/04/21 00:01:54;;;;;;;14.55;11.55;;;;;;;5.77;82.75;93016.44;513859;28;884;-54
2023/04/21 00:02:09;;;;;;;16.88;11.70;;;;;;;5.82;82.67;93023.09;515686;28;890;-52
2023/04/21 00:02:26;;;;;;;16.97;11.63;;;;;;;5.84;82.48;93015.09;515698;28;899;-52
2023/04/21 00:02:41;;;;;;;14.45;11.50;;;;;;;5.86;82.26;93013.31;515724;28;922;-53
2023/04/21 00:02:56;;;;;;;14.67;11.53;;;;;;;5.87;82.19;93017.50;515717;28;908;-54
2023/04/21 00:03:12;;;;;;;15.90;11.73;;;;;;;5.88;81.90;93015.50;515672;28;897;-53
2023/04/21 00:03:28;;;;;;;15.68;11.77;;;;;;;5.88;81.97;93019.00;515826;28;943;-54
2023/04/21 00:03:45;;;;;;;17.48;12.48;;;;;;;5.90;81.89;93019.19;515740;28;867;-53
2023/04/21 00:04:00;;;;;;;15.63;11.85;;;;;;;5.92;81.78;93018.66;514863;28;841;-53
2023/04/21 00:04:16;;;;;;;13.73;11.40;;;;;;;5.86;81.65;93016.06;513875;28;891;-53
2023/04/21 00:04:32;;;;;;;15.55;12.23;;;;;;;5.80;81.58;93015.41;513867;28;879;-54
2023/04/21 00:04:48;;;;;;;16.50;12.80;;;;;;;5.76;81.65;93019.72;513890;28;871;-55
2023/04/21 00:05:09;;;;;;;15.77;12.52;;;;;;;5.77;81.93;93015.69;513927;28;799;-53
2023/04/21 00:05:25;;;;;;;15.60;12.30;;;;;;;5.78;81.77;93019.94;513893;28;849;-54
2023/04/21 00:05:41;;;;;;;15.83;11.77;;;;;;;5.80;81.75;93009.91;513811;28;941;-53
2023/04/21 00:06:00;;;;;;;16.85;11.70;;;;;;;5.75;81.75;93016.25;513652;28;1097;-54
2023/04/21 00:06:21;;;;;;;16.77;12.40;;;;;;;5.69;81.78;93018.34;513793;28;947;-54
2023/04/21 00:06:36;;;;;;;16.67;11.60;;;;;;;5.59;81.75;93020.03;513888;28;868;-53
2023/04/21 00:06:52;;;;;;;15.03;11.33;;;;;;;5.55;81.79;93019.59;513866;28;775;-55
2023/04/21 00:07:07;;;;;;;16.20;11.70;;;;;;;5.52;81.92;93015.19;513902;28;892;-54
2023/04/21 00:07:23;;;;;;;15.20;11.40;;;;;;;5.55;81.91;93016.88;513813;28;932;-54
2023/04/21 00:07:39;;;;;;;14.40;11.13;;;;;;;5.50;81.96;93020.44;513860;28;1086;-54
2023/04/21 00:07:54;;;;;;;15.55;11.23;;;;;;;5.36;81.93;93013.50;513791;28;879;-54
2023/04/21 00:08:10;;;;;;;14.00;11.23;;;;;;;5.26;81.99;93020.66;513901;28;864;-53
2023/04/21 00:08:25;;;;;;;14.80;11.48;;;;;;;5.14;82.64;93011.91;513855;28;815;-54
2023/04/21 00:08:41;;;;;;;16.00;12.03;;;;;;;5.09;82.76;93014.75;513916;28;822;-54
2023/04/21 00:08:56;;;;;;;15.23;12.07;;;;;;;5.03;83.07;93014.06;513856;28;856;-54
2023/04/21 00:09:12;;;;;;;16.20;11.73;;;;;;;5.01;83.26;93011.13;513921;28;786;-55
2023/04/21 00:09:27;;;;;;;15.30;11.35;;;;;;;5.05;83.42;93020.50;513882;28;887;-55
2023/04/21 00:09:43;;;;;;;13.27;10.80;;;;;;;5.04;83.49;93016.31;513895;28;833;-54
2023/04/21 00:09:58;;;;;;;13.63;10.73;;;;;;;5.05;83.60;93015.03;513797;28;813;-54
2023/04/21 00:10:13;;;;;;;13.45;10.60;;;;;;;5.00;83.64;93023.34;513905;28;932;-55
2023/04/21 00:10:29;;;;;;;12.23;10.20;;;;;;;5.00;83.69;93021.31;513894;28;833;-55
2023/04/21 00:10:45;;;;;;;12.30;9.68;;;;;;;4.92;83.70;93000.59;513931;28;774;-54
2023/04/21 00:11:01;;;;;;;11.90;9.73;;;;;;;5.09;83.57;93017.47;513720;28;915;-53
2023/04/21 00:11:16;;;;;;;11.17;9.97;;;;;;;5.14;83.61;93022.84;514141;28;1147;-53
2023/04/21 00:11:32;;;;;;;10.57;9.35;;;;;;;5.16;83.24;93019.56;515679;28;1038;-53
2023/04/21 00:11:47;;;;;;;11.85;10.02;;;;;;;5.18;83.17;93017.03;515750;28;856;-54
2023/04/21 00:12:03;;;;;;;13.20;10.53;;;;;;;5.21;82.94;93022.22;515673;28;963;-54
2023/04/21 00:12:18;;;;;;;12.43;10.27;;;;;;;5.24;82.71;93023.19;515770;28;876;-53
2023/04/21 00:12:34;;;;;;;12.43;9.90;;;;;;;5.25;82.64;93019.91;515704;28;856;-55
2023/04/21 00:12:49;;;;;;;12.60;9.57;;;;;;;5.22;82.61;93018.22;515781;28;815;-55
2023/04/21 00:13:04;;;;;;;13.07;9.90;;;;;;;5.24;82.63;93026.63;515686;28;1914;-55
2023/04/21 00:13:20;;;;;;;13.00;9.70;;;;;;;5.23;82.47;93016.22;515756;28;837;-54
2023/04/21 00:13:35;;;;;;;10.27;8.48;;;;;;;5.28;82.38;93021.59;515925;28;856;-53
2023/04/21 00:13:51;;;;;;;10.00;8.40;;;;;;;5.30;82.34;93015.59;515898;28;1048;-54
2023/04/21 00:14:06;;;;;;;11.02;8.25;;;;;;;5.33;82.09;93014.53;515813;28;857;-54
2023/04/21 00:14:21;;;;;;;10.53;7.97;;;;;;;5.34;81.90;93021.50;515927;28;738;-53
2023/04/21 00:14:38;;;;;;;10.80;8.07;;;;;;;5.37;81.87;93028.66;515855;28;876;-53
2023/04/21 00:14:54;;;;;;;12.10;8.27;;;;;;;5.37;81.59;93023.91;515796;28;949;-54
2023/04/21 00:15:09;;;;;;;11.63;8.32;;;;;;;5.38;81.63;93016.44;515903;28;793;-53
2023/04/21 00:15:25;;;;;;;11.40;8.47;;;;;;;5.38;81.71;93019.19;515950;28;819;-54
2023/04/21 00:15:40;;;;;;;12.05;9.25;;;;;;;5.38;81.46;93019.19;515855;28;861;-54
2023/04/21 00:15:55;;;;;;;11.73;9.47;;;;;;;5.37;81.31;93021.19;516175;28;1201;-52
2023/04/21 00:16:11;;;;;;;11.40;9.33;;;;;;;5.33;81.39;93012.53;517886;28;776;-54
2023/04/21 00:16:26;;;;;;;11.93;9.70;;;;;;;5.40;81.52;93016.66;517882;28;1240;-55
2023/04/21 00:16:42;;;;;;;13.50;10.10;;;;;;;5.26;81.43;92998.75;517953;28;785;-54
2023/04/21 00:16:59;;;;;;;13.57;10.63;;;;;;;5.46;81.47;93024.78;517890;28;828;-53
2023/04/21 00:17:14;;;;;;;11.40;9.95;;;;;;;5.47;81.36;93021.50;517902;28;910;-53
2023/04/21 00:17:29;;;;;;;10.43;8.90;;;;;;;5.49;81.41;93020.97;517960;28;764;-54
2023/04/21 00:17:45;;;;;;;11.30;9.03;;;;;;;5.47;81.60;93021.50;517900;28;802;-54
2023/04/21 00:18:00;;;;;;;11.65;9.70;;;;;;;5.49;81.33;93020.97;517733;28;919;-55
2023/04/21 00:18:16;;;;;;;11.17;9.80;;;;;;;5.48;81.40;93019.50;517941;28;806;-54
2023/04/21 00:18:32;;;;;;;11.38;9.80;;;;;;;5.51;81.47;93021.19;517877;28;915;-54
2023/04/21 00:18:47;;;;;;;12.35;10.32;;;;;;;5.50;81.57;93020.44;517891;28;817;-53
2023/04/21 00:19:05;;;;;;;13.20;10.27;;;;;;;5.51;81.87;93021.94;517861;28;916;-53
2023/04/21 00:19:22;;;;;;;14.60;10.55;;;;;;;5.51;81.32;93024.66;517940;28;827;-53
2023/04/21 00:19:38;;;;;;;14.63;11.15;;;;;;;5.53;81.12;93027.59;517885;28;938;-53
2023/04/21 00:19:53;;;;;;;12.98;11.25;;;;;;;5.53;81.40;93019.41;517864;28;757;-53
2023/04/21 00:20:09;;;;;;;15.53;11.73;;;;;;;5.37;81.08;92996.53;517946;28;844;-54
2023/04/21 00:20:28;;;;;;;15.35;11.63;;;;;;;5.49;81.07;93021.72;517829;28;1004;-52
2023/04/21 00:20:43;;;;;;;14.80;11.65;;;;;;;5.49;81.28;93021.72;517904;28;878;-51
2023/04/21 00:20:59;;;;;;;16.20;11.30;;;;;;;5.49;81.38;93018.97;517910;28;801;-52
2023/04/21 00:21:15;;;;;;;15.40;11.07;;;;;;;5.51;81.36;93023.91;517786;28;881;-53
2023/04/21 00:21:30;;;;;;;14.02;11.15;;;;;;;5.52;81.31;93022.66;517917;28;865;-53
2023/04/21 00:21:46;;;;;;;14.73;11.83;;;;;;;5.54;81.42;93014.66;517890;28;791;-52
2023/04/21 00:22:03;;;;;;;14.65;11.70;;;;;;;5.55;81.42;93021.59;517835;28;887;-52
2023/04/21 00:22:18;;;;;;;14.23;11.18;;;;;;;5.56;81.40;93025.81;517919;28;837;-53
2023/04/21 00:22:34;;;;;;;15.83;11.87;;;;;;;5.56;81.38;93021.09;517842;28;813;-52
2023/04/21 00:22:49;;;;;;;17.63;12.00;;;;;;;5.59;81.45;93020.03;517835;28;880;-53
2023/04/21 00:23:05;;;;;;;17.40;11.47;;;;;;;5.61;81.37;93025.72;517887;28;861;-52
2023/04/21 00:23:20;;;;;;;16.08;11.48;;;;;;;5.62;81.33;93016.25;517902;28;876;-52
2023/04/21 00:23:35;;;;;;;15.67;11.67;;;;;;;5.62;81.27;93024.47;517869;28;836;-54
2023/04/21 00:23:51;;;;;;;15.00;12.40;;;;;;;5.64;81.13;93024.66;517869;28;861;-52
2023/04/21 00:24:06;;;;;;;15.98;12.35;;;;;;;5.65;81.27;93017.91;517794;28;940;-53
2023/04/21 00:24:22;;;;;;;16.53;11.90;;;;;;;5.66;81.04;93018.66;517869;28;848;-54
2023/04/21 00:24:37;;;;;;;18.80;12.30;;;;;;;5.67;81.08;93020.88;517900;28;793;-53
2023/04/21 00:24:52;;;;;;;17.77;12.23;;;;;;;5.68;80.93;93025.09;517858;28;789;-52
2023/04/21 00:25:08;;;;;;;18.20;12.33;;;;;;;5.63;80.86;93023.19;517910;28;840;-52
2023/04/21 00:25:24;;;;;;;19.77;12.20;;;;;;;5.54;81.10;93022.88;517843;28;927;-53
2023/04/21 00:25:40;;;;;;;17.63;11.43;;;;;;;5.51;81.24;93021.94;517835;28;797;-51
2023/04/21 00:25:55;;;;;;;16.35;11.55;;;;;;;5.52;81.47;93026.16;517835;28;865;-53
2023/04/21 00:26:10;;;;;;;15.53;11.53;;;;;;;5.52;81.47;93023.41;517775;28;821;-52
2023/04/21 00:26:26;;;;;;;17.17;12.30;;;;;;;5.52;81.49;93017.19;517893;28;789;-53
2023/04/21 00:26:41;;;;;;;19.15;13.05;;;;;;;5.53;81.77;93022.13;517895;28;790;-55
2023/04/21 00:26:56;;;;;;;19.63;12.63;;;;;;;5.49;82.04;93018.97;517911;28;773;-51
2023/04/21 00:27:12;;;;;;;18.33;12.03;;;;;;;5.44;82.14;93019.81;517876;28;864;-54
2023/04/21 00:27:27;;;;;;;16.27;12.00;;;;;;;5.34;82.72;93013.28;517918;28;872;-53
2023/04/21 00:27:43;;;;;;;17.57;12.80;;;;;;;5.30;82.80;93015.59;517903;28;884;-52
2023/04/21 00:27:58;;;;;;;19.13;13.82;;;;;;;5.32;83.10;93013.06;517824;28;986;-54
2023/04/21 00:28:13;;;;;;;31.10;16.13;;;;;;;5.33;83.30;93009.81;517822;28;932;-55
2023/04/21 00:28:29;;;;;;;30.20;16.40;;;;;;;5.37;83.38;93012.25;517908;28;786;-54
2023/04/21 00:28:44;;;;;;;36.92;16.65;;;;;;;5.35;83.39;93003.78;517841;28;900;-53
2023/04/21 00:28:59;;;;;;;41.83;16.60;;;;;;;5.46;83.45;93020.03;517720;28;853;-55
2023/04/21 00:29:15;;;;;;;29.50;15.43;;;;;;;5.50;83.42;93020.44;517684;28;825;-54
2023/04/21 00:29:30;;;;;;;27.60;15.07;;;;;;;5.37;83.41;92993.09;517685;28;868;-54
2023/04/21 00:29:46;;;;;;;24.63;14.17;;;;;;;5.55;83.36;93010.66;517776;28;789;-55
2023/04/21 00:30:01;;;;;;;21.88;13.75;;;;;;;5.54;83.07;93014.66;517647;28;926;-54
2023/04/21 00:30:17;;;;;;;35.27;15.03;;;;;;;5.53;83.05;93016.66;517664;28;990;-54
2023/04/21 00:30:32;;;;;;;41.65;15.57;;;;;;;5.51;83.02;93018.44;517690;28;959;-55
2023/04/21 00:30:47;;;;;;;64.37;16.57;;;;;;;5.52;83.08;93017.94;516657;28;1083;-52
2023/04/21 00:31:03;;;;;;;94.27;19.50;;;;;;;5.49;83.39;93015.50;515830;28;817;-51
2023/04/21 00:31:18;;;;;;;92.47;19.95;;;;;;;5.42;83.35;93007.91;515830;28;1015;-55
2023/04/21 00:31:33;;;;;;;71.63;17.03;;;;;;;5.30;83.68;93010.13;515818;28;786;-53
2023/04/21 00:31:49;;;;;;;39.33;15.20;;;;;;;5.37;84.03;93012.25;515809;28;1246;-55
2023/04/21 00:32:07;;;;;;;30.42;15.23;;;;;;;5.40;84.13;93008.44;515585;28;878;-54
2023/04/21 00:32:22;;;;;;;26.65;15.45;;;;;;;5.43;84.21;93012.88;515690;28;879;-54
2023/04/21 00:32:38;;;;;;;28.03;15.60;;;;;;;5.42;84.23;93011.38;515743;28;757;-52
2023/04/21 00:32:53;;;;;;;28.98;14.73;;;;;;;5.44;84.27;93013.59;515654;28;809;-54
2023/04/21 00:33:08;;;;;;;28.40;14.60;;;;;;;5.45;84.44;93010.34;515643;28;1914;-52
2023/04/21 00:33:24;;;;;;;29.90;15.33;;;;;;;5.49;84.34;93015.50;515624;28;1677;-53
2023/04/21 00:33:39;;;;;;;29.02;14.60;;;;;;;5.51;84.32;93010.22;515752;28;805;-53
2023/04/21 00:33:55;;;;;;;30.23;14.47;;;;;;;5.52;84.14;93008.97;515607;28;1165;-52
2023/04/21 00:34:10;;;;;;;35.33;15.00;;;;;;;5.52;84.14;93008.97;515826;28;877;-54
2023/04/21 00:34:25;;;;;;;40.47;14.70;;;;;;;5.54;83.98;93014.66;515841;28;809;-53
2023/04/21 00:34:41;;;;;;;38.93;14.60;;;;;;;5.51;83.99;93010.97;515848;28;798;-53
2023/04/21 00:34:56;;;;;;;29.50;14.32;;;;;;;5.50;83.84;93014.25;515884;28;785;-52
2023/04/21 00:35:11;;;;;;;24.27;13.80;;;;;;;5.49;84.09;93008.03;515899;28;877;-54
2023/04/21 00:35:27;;;;;;;22.63;13.90;;;;;;;5.54;84.38;93003.72;515888;28;899;-54
2023/04/21 00:35:42;;;;;;;38.27;15.40;;;;;;;5.56;83.81;93012.13;515883;28;770;-54
2023/04/21 00:35:58;;;;;;;41.03;16.13;;;;;;;5.57;83.77;93008.88;515851;28;795;-54
2023/04/21 00:36:13;;;;;;;26.65;15.60;;;;;;;5.58;83.91;93015.81;515841;28;834;-54
2023/04/21 00:36:29;;;;;;;42.43;17.57;;;;;;;5.60;83.69;93018.78;515817;28;951;-54
2023/04/21 00:36:44;;;;;;;51.55;18.10;;;;;;;5.60;83.65;93007.81;515842;28;762;-54
2023/04/21 00:37:00;;;;;;;32.20;15.43;;;;;;;5.62;83.56;93013.50;515666;28;822;-52
2023/04/21 00:37:15;;;;;;;40.85;15.55;;;;;;;5.65;83.55;93006.25;515624;28;827;-54
2023/04/21 00:37:31;;;;;;;46.20;16.30;;;;;;;5.67;83.60;93011.94;515720;28;862;-54
2023/04/21 00:37:48;;;;;;;35.88;16.25;;;;;;;5.69;83.26;93003.91;515686;28;903;-54
2023/04/21 00:38:04;;;;;;;34.47;16.17;;;;;;;5.71;83.28;93007.59;515577;28;1734;-53
2023/04/21 00:38:19;;;;;;;27.90;15.43;;;;;;;5.72;83.17;93005.59;515692;28;879;-54
2023/04/21 00:38:35;;;;;;;20.97;14.83;;;;;;;5.74;83.06;93005.81;515633;28;870;-54
2023/04/21 00:38:50;;;;;;;21.98;14.98;;;;;;;5.75;82.84;93007.28;515712;28;839;-55
2023/04/21 00:39:06;;;;;;;23.23;15.20;;;;;;;5.76;82.73;93009.47;515842;28;938;-53
2023/04/21 00:39:21;;;;;;;21.23;14.43;;;;;;;5.72;82.72;93000.84;515847;28;841;-53
2023/04/21 00:39:36;;;;;;;20.13;13.90;;;;;;;5.65;82.82;93006.25;515871;28;797;-53
2023/04/21 00:39:52;;;;;;;20.37;14.57;;;;;;;5.50;83.08;92997.81;515783;28;864;-52
2023/04/21 00:40:08;;;;;;;20.60;14.95;;;;;;;5.34;83.26;92985.91;515792;28;1076;-54
2023/04/21 00:40:24;;;;;;;20.42;14.73;;;;;;;5.51;83.58;93010.22;515830;28;809;-54
2023/04/21 00:40:39;;;;;;;20.55;14.73;;;;;;;5.52;83.52;93011.72;515824;28;1139;-55
2023/04/21 00:40:54;;;;;;;22.13;14.60;;;;;;;5.43;83.66;93001.94;515747;28;912;-55
2023/04/21 00:41:10;;;;;;;22.23;14.98;;;;;;;5.39;83.85;93009.72;515815;28;907;-55
2023/04/21 00:41:27;;;;;;;20.27;14.87;;;;;;;5.30;84.25;93005.41;515809;28;892;-53
2023/04/21 00:41:42;;;;;;;20.60;15.20;;;;;;;5.23;84.48;93008.75;515924;28;880;-54
2023/04/21 00:41:58;;;;;;;20.63;15.57;;;;;;;5.15;84.77;93010.66;515753;28;769;-53
2023/04/21 00:42:16;;;;;;;20.48;15.02;;;;;;;5.07;85.42;93006.28;515879;28;1053;-53
2023/04/21 00:42:31;;;;;;;22.30;14.48;;;;;;;5.01;85.44;93008.38;515818;28;882;-54
2023/04/21 00:42:47;;;;;;;21.70;14.07;;;;;;;4.94;85.77;93009.00;515860;28;868;-54
2023/04/21 00:43:06;;;;;;;19.25;13.70;;;;;;;4.89;86.09;93009.84;515760;28;880;-53
2023/04/21 00:43:21;;;;;;;19.63;14.23;;;;;;;4.88;86.34;93002.88;515844;28;926;-52
2023/04/21 00:43:36;;;;;;;19.63;14.50;;;;;;;4.84;86.50;93002.47;515906;28;770;-54
2023/04/21 00:44:06;;;;;;;18.40;13.98;;;;;;;4.84;86.81;93000.47;515828;28;820;-54
2023/04/21 00:44:22;;;;;;;19.73;13.95;;;;;;;4.85;86.88;92998.47;515746;28;961;-55
2023/04/21 00:44:37;;;;;;;19.33;13.88;;;;;;;4.86;87.03;92997.94;515923;28;813;-54
2023/04/21 00:44:52;;;;;;;18.10;13.90;;;;;;;4.85;87.01;93003.94;515774;28;896;-54
2023/04/21 00:45:08;;;;;;;17.43;13.90;;;;;;;4.82;87.14;93004.97;515923;28;785;-52
2023/04/21 00:45:24;;;;;;;17.92;13.85;;;;;;;4.86;87.17;92997.94;515869;28;856;-53
2023/04/21 00:45:39;;;;;;;19.00;13.52;;;;;;;4.73;87.22;92989.72;515768;28;2389;-54
2023/04/21 00:45:55;;;;;;;20.15;13.27;;;;;;;4.88;87.19;93005.63;515682;28;873;-55
2023/04/21 00:46:10;;;;;;;19.47;13.13;;;;;;;4.86;87.04;92997.22;515684;28;1139;-56
2023/04/21 00:46:26;;;;;;;17.60;13.03;;;;;;;4.84;86.99;93003.22;515766;28;802;-52
2023/04/21 00:46:42;;;;;;;16.65;12.70;;;;;;;4.84;87.03;93002.47;515790;28;821;-53
2023/04/21 00:46:57;;;;;;;16.95;12.95;;;;;;;4.82;87.23;93003.00;515829;28;960;-53
2023/04/21 00:47:12;;;;;;;16.47;13.00;;;;;;;4.78;87.10;93004.56;515679;28;860;-54
2023/04/21 00:47:28;;;;;;;16.50;12.65;;;;;;;4.78;87.24;92996.34;515723;28;785;-55
2023/04/21 00:47:43;;;;;;;17.47;13.03;;;;;;;4.78;87.11;93001.81;515608;28;944;-54
2023/04/21 00:47:59;;;;;;;17.93;12.80;;;;;;;4.69;87.22;92983.06;515593;28;835;-53
2023/04/21 00:48:14;;;;;;;18.85;12.02;;;;;;;4.72;87.29;93001.91;515572;28;1100;-54
2023/04/21 00:48:29;;;;;;;19.70;12.27;;;;;;;4.68;87.36;93004.19;515729;28;845;-52
2023/04/21 00:48:46;;;;;;;18.42;12.35;;;;;;;4.61;87.36;92999.38;515669;28;773;-54
2023/04/21 00:49:05;;;;;;;20.25;12.20;;;;;;;4.54;87.54;93003.44;515706;28;1081;-54
2023/04/21 00:49:21;;;;;;;18.95;12.13;;;;;;;4.50;87.74;92997.50;515773;28;896;-52
2023/04/21 00:49:37;;;;;;;17.97;12.30;;;;;;;4.43;88.07;93000.13;515634;28;1018;-54
2023/04/21 00:49:52;;;;;;;17.92;11.93;;;;;;;4.38;88.25;92998.94;515610;28;876;-54
2023/04/21 00:50:09;;;;;;;15.13;10.83;;;;;;;4.19;88.46;92979.13;515596;28;827;-54
2023/04/21 00:50:24;;;;;;;15.73;10.65;;;;;;;4.29;88.53;92990.38;515642;28;1702;-53
2023/04/21 00:50:40;;;;;;;16.50;11.63;;;;;;;4.31;88.74;92994.09;513654;28;860;-53
2023/04/21 00:50:55;;;;;;;17.30;11.87;;;;;;;4.37;88.99;92996.75;513617;28;846;-54
2023/04/21 00:51:11;;;;;;;17.20;11.70;;;;;;;4.37;88.78;92997.50;511723;29;830;-52
2023/04/21 00:51:28;;;;;;;15.00;11.50;;;;;;;4.30;88.97;92989.16;512167;28;1173;-54
2023/04/21 00:51:44;;;;;;;14.05;11.18;;;;;;;4.31;89.01;92996.81;511652;28;949;-53
2023/04/21 00:52:00;;;;;;;14.60;10.87;;;;;;;4.26;88.89;92994.91;511520;29;865;-54
2023/04/21 00:52:17;;;;;;;16.75;10.85;;;;;;;4.27;89.10;92999.13;511586;29;857;-51
2023/04/21 00:52:34;;;;;;;17.52;11.45;;;;;;;4.06;89.38;92968.13;512502;28;893;-54
2023/04/21 00:52:50;;;;;;;15.13;11.70;;;;;;;4.27;89.24;92999.13;513682;28;841;-53
2023/04/21 00:53:05;;;;;;;16.35;11.88;;;;;;;4.31;89.21;92999.53;514741;28;1914;-54
2023/04/21 00:53:21;;;;;;;16.48;11.95;;;;;;;4.37;89.45;92996.75;515718;28;857;-53
2023/04/21 00:53:36;;;;;;;17.03;12.03;;;;;;;4.42;89.47;92998.63;515714;28;907;-55
2023/04/21 00:53:53;;;;;;;17.07;11.63;;;;;;;4.41;89.20;93002.66;515668;28;949;-54
2023/04/21 00:54:09;;;;;;;14.90;10.95;;;;;;;4.25;89.15;92968.09;513640;28;1581;-55
2023/04/21 00:54:26;;;;;;;15.35;11.38;;;;;;;4.43;89.10;92992.69;511681;29;860;-52
2023/04/21 00:54:41;;;;;;;15.40;11.13;;;;;;;4.45;89.05;93000.34;511642;29;917;-52
2023/04/21 00:54:57;;;;;;;14.25;10.68;;;;;;;4.46;89.16;92997.09;511671;28;944;-53
2023/04/21 00:55:13;;;;;;;15.13;10.97;;;;;;;4.50;89.06;93000.25;513055;28;1308;-52
2023/04/21 00:55:30;;;;;;;17.00;11.18;;;;;;;4.55;88.93;92999.44;513681;28;891;-54
2023/04/21 00:55:46;;;;;;;16.67;11.05;;;;;;;4.56;88.51;92990.00;514655;28;918;-53
2023/04/21 00:56:01;;;;;;;14.23;10.80;;;;;;;4.67;88.70;93002.75;514507;28;844;-53
2023/04/21 00:56:17;;;;;;;13.57;10.20;;;;;;;4.71;87.95;92994.97;515736;28;834;-55
2023/04/21 00:56:34;;;;;;;13.52;10.25;;;;;;;4.78;88.00;92999.09;515599;28;930;-54
2023/04/21 00:56:50;;;;;;;15.43;10.68;;;;;;;4.81;87.96;92995.31;515624;28;866;-54
2023/04/21 00:57:06;;;;;;;16.73;10.77;;;;;;;4.86;87.72;92997.22;515653;28;869;-52
2023/04/21 00:57:22;;;;;;;16.13;10.55;;;;;;;4.86;87.53;92995.22;513632;28;824;-54
2023/04/21 00:57:37;;;;;;;14.40;10.23;;;;;;;4.89;87.44;92996.19;510625;29;1151;-53
2023/04/21 00:57:54;;;;;;;14.15;10.27;;;;;;;4.93;87.26;93002.06;508493;29;1205;-54
2023/04/21 00:58:09;;;;;;;16.13;10.20;;;;;;;4.97;87.23;92997.78;511704;29;827;-54
2023/04/21 00:58:25;;;;;;;19.63;10.85;;;;;;;4.99;87.09;92989.78;509682;29;790;-53
2023/04/21 00:58:41;;;;;;;21.13;11.27;;;;;;;5.04;86.89;93001.88;509726;29;798;-55
2023/04/21 00:58:57;;;;;;;16.92;10.60;;;;;;;5.08;86.70;92992.09;509687;29;802;-54
2023/04/21 00:59:13;;;;;;;13.98;10.65;;;;;;;5.11;86.54;92995.78;510537;29;822;-52
2023/04/21 00:59:29;;;;;;;15.07;10.83;;;;;;;5.13;86.35;92996.00;512290;28;1612;-54
2023/04/21 00:59:45;;;;;;;17.67;10.63;;;;;;;5.15;86.23;92996.22;512958;28;846;-53
2023/04/21 01:00:01;;;;;;;18.95;10.68;;;;;;;5.17;86.22;92999.16;512300;28;813;-55
2023/04/21 01:00:17;;;;;;;15.65;11.32;;;;;;;5.18;86.09;92995.16;514480;28;886;-54
2023/04/21 01:00:32;;;;;;;16.03;11.60;;;;;;;5.18;85.96;92995.16;515753;28;837;-54
2023/04/21 01:00:48;;;;;;;15.18;11.25;;;;;;;5.19;85.99;92997.38;515798;28;817;-55
2023/04/21 01:01:04;;;;;;;14.80;11.70;;;;;;;5.21;85.92;92994.13;515816;28;777;-54
2023/04/21 01:01:19;;;;;;;15.77;11.85;;;;;;;5.22;85.82;92995.56;515913;28;818;-53
2023/04/21 01:01:35;;;;;;;16.87;11.83;;;;;;;5.22;85.80;92993.59;515719;28;1139;-54
2023/04/21 01:01:51;;;;;;;17.80;12.27;;;;;;;5.26;85.56;92996.03;515744;28;830;-54
2023/04/21 01:02:07;;;;;;;16.70;12.50;;;;;;;5.28;85.53;92994.22;515785;28;855;-55
2023/04/21 01:02:23;;;;;;;16.00;12.50;;;;;;;5.32;85.40;93002.13;515888;28;838;-54
2023/04/21 01:02:39;;;;;;;15.55;12.32;;;;;;;5.31;85.25;92998.66;515770;28;825;-52
2023/04/21 01:02:54;;;;;;;15.63;12.35;;;;;;;5.32;84.93;92991.19;515826;28;933;-54
2023/04/21 01:03:10;;;;;;;17.65;12.60;;;;;;;5.32;84.91;93000.13;515887;28;876;-54
2023/04/21 01:03:25;;;;;;;19.00;12.97;;;;;;;5.35;84.70;92995.59;515795;28;817;-53
2023/04/21 01:03:41;;;;;;;17.40;12.85;;;;;;;5.35;84.50;92993.59;515881;28;785;-52
2023/04/21 01:03:58;;;;;;;18.47;13.23;;;;;;;5.37;84.40;92993.81;515685;28;872;-55
2023/04/21 01:04:13;;;;;;;18.13;12.38;;;;;;;5.38;84.17;92997.28;515559;28;1025;-54
2023/04/21 01:04:34;;;;;;;17.13;12.20;;;;;;;5.38;84.17;92994.53;515720;28;831;-55
2023/04/21 01:04:49;;;;;;;19.10;13.65;;;;;;;5.39;84.18;92991.28;515678;28;831;-52
2023/04/21 01:05:08;;;;;;;20.27;15.00;;;;;;;5.40;83.97;92997.50;515669;28;923;-53
2023/04/21 01:05:23;;;;;;;24.42;15.95;;;;;;;5.43;83.95;92995.72;515628;28;864;-55
2023/04/21 01:05:41;;;;;;;25.15;17.08;;;;;;;5.42;83.74;92991.47;515669;28;761;-54
2023/04/21 01:05:56;;;;;;;25.52;18.85;;;;;;;5.39;83.75;92999.47;515350;28;915;-55
2023/04/21 01:06:12;;;;;;;27.03;19.17;;;;;;;5.38;83.73;92991.81;515629;28;886;-54
2023/04/21 01:06:28;;;;;;;29.27;19.43;;;;;;;5.38;83.65;92997.28;515871;28;828;-53
2023/04/21 01:06:44;;;;;;;27.88;19.63;;;;;;;5.39;83.31;92988.53;515735;28;863;-54
2023/04/21 01:07:00;;;;;;;25.30;18.63;;;;;;;5.39;83.27;92994.00;515794;28;876;-54
2023/04/21 01:07:15;;;;;;;26.45;19.35;;;;;;;5.42;83.24;92991.47;515826;28;1054;-53
2023/04/21 01:07:31;;;;;;;26.42;19.65;;;;;;;5.42;83.16;92992.22;515714;28;781;-54
2023/04/21 01:07:47;;;;;;;25.27;19.30;;;;;;;5.44;83.17;92995.16;515676;28;1143;-54
2023/04/21 01:08:02;;;;;;;26.05;18.77;;;;;;;5.44;83.10;92995.16;515561;28;696;-54
2023/04/21 01:08:17;;;;;;;27.43;19.17;;;;;;;5.48;83.12;92994.88;515633;28;857;-53
2023/04/21 01:08:33;;;;;;;33.72;21.33;;;;;;;5.48;83.04;92995.59;515704;28;818;-54
2023/04/21 01:08:51;;;;;;;41.60;22.90;;;;;;;5.48;83.11;92997.59;515694;28;809;-54
2023/04/21 01:09:07;;;;;;;33.72;21.17;;;;;;;5.49;83.07;92990.84;515617;28;893;-54
2023/04/21 01:09:22;;;;;;;32.00;19.80;;;;;;;5.53;83.06;92996.75;515657;28;1660;-54
2023/04/21 01:09:37;;;;;;;30.30;19.20;;;;;;;5.54;83.05;93001.72;515803;28;864;-53
2023/04/21 01:09:53;;;;;;;26.80;18.45;;;;;;;5.54;83.08;92992.75;515706;28;877;-54
2023/04/21 01:10:09;;;;;;;25.33;17.80;;;;;;;5.55;83.08;92986.75;515690;28;989;-53
2023/04/21 01:10:24;;;;;;;25.98;17.67;;;;;;;5.56;83.28;92996.44;515801;28;853;-52
2023/04/21 01:10:39;;;;;;;27.57;18.20;;;;;;;5.56;83.05;92988.25;515790;28;852;-53
2023/04/21 01:10:55;;;;;;;24.92;17.30;;;;;;;5.57;82.97;92991.69;515748;28;888;-54
2023/04/21 01:11:11;;;;;;;24.80;16.50;;;;;;;5.57;83.14;92989.69;515783;28;885;-55
2023/04/21 01:11:27;;;;;;;23.08;16.23;;;;;;;5.57;83.02;92986.97;515770;28;1108;-53
2023/04/21 01:12:01;;;;;;;22.57;15.53;;;;;;;5.57;82.84;92986.97;515764;28;833;-55
2023/04/21 01:12:16;;;;;;;37.08;16.95;;;;;;;5.55;82.67;92983.25;515762;28;896;-54
2023/04/21 01:12:31;;;;;;;30.00;17.30;;;;;;;5.54;82.83;92985.28;515732;28;861;-55
2023/04/21 01:12:47;;;;;;;28.67;17.08;;;;;;;5.53;82.65;92991.28;515720;28;873;-55
2023/04/21 01:13:02;;;;;;;26.57;16.83;;;;;;;5.53;82.50;92985.78;515815;28;773;-54
2023/04/21 01:13:21;;;;;;;25.87;16.93;;;;;;;5.46;82.46;92989.19;515718;28;1978;-54
2023/04/21 01:13:37;;;;;;;28.50;16.90;;;;;;;5.46;82.56;92994.66;515816;28;810;-52
2023/04/21 01:13:53;;;;;;;26.08;17.15;;;;;;;5.43;82.53;92982.03;515717;28;884;-54
2023/04/21 01:14:09;;;;;;;22.88;15.88;;;;;;;5.41;82.57;92988.03;515630;28;908;-54
2023/04/21 01:14:24;;;;;;;22.75;15.82;;;;;;;5.38;82.54;92980.84;515570;28;852;-52
2023/04/21 01:14:40;;;;;;;24.30;16.98;;;;;;;5.33;82.65;92978.94;515708;28;879;-53
2023/04/21 01:14:55;;;;;;;25.13;16.63;;;;;;;5.28;82.63;92982.53;515608;28;880;-54
2023/04/21 01:15:12;;;;;;;26.48;15.88;;;;;;;5.22;82.79;92984.63;515708;28;852;-53
2023/04/21 01:15:29;;;;;;;23.88;15.63;;;;;;;5.22;82.88;92987.38;515685;28;830;-54
2023/04/21 01:15:45;;;;;;;22.35;15.60;;;;;;;5.25;82.95;92989.06;515598;28;912;-52
2023/04/21 01:16:00;;;;;;;30.43;15.60;;;;;;;5.23;83.13;92980.63;516691;28;1197;-54
2023/04/21 01:16:17;;;;;;;32.05;15.98;;;;;;;5.23;83.07;92986.13;517833;28;852;-51
2023/04/21 01:16:32;;;;;;;25.73;15.98;;;;;;;5.26;83.13;92982.34;517853;28;822;-52